Time;durP1;ratioP1;P1;durP2;ratioP2;P2;SDS_P1;SDS_P2;PMS_P1;PMS_P2;Temp;Humidity;BMP_temperature;BMP_pressure;BME280_temperature;BME280_humidity;BME280_pressure;Samples;Min_cycle;Max_cycle;Signal;HPM_P1;HPM_P2
2022/03/11 00:01:23;;;;;;;17.98;11.40;;;;;;;7.76;41.76;101236.31;5022596;28;20050;-82
2022/03/11 00:03:50;;;;;;;19.25;11.02;;;;;;;7.79;41.84;101249.13;5021560;28;20054;-84
2022/03/11 00:06:18;;;;;;;17.83;11.10;;;;;;;7.81;41.80;101251.59;5019760;28;20088;-83
2022/03/11 00:08:44;;;;;;;16.95;11.32;;;;;;;7.65;41.86;101231.97;5019531;28;20045;-82
2022/03/11 00:11:11;;;;;;;19.10;11.27;;;;;;;7.70;41.75;101242.03;5019956;28;20058;-83
2022/03/11 00:13:37;;;;;;;15.15;10.10;;;;;;;7.78;41.46;101247.47;5020086;28;20144;-83
2022/03/11 00:16:05;;;;;;;17.08;10.63;;;;;;;7.75;41.52;101241.66;5018716;28;20556;-83
2022/03/11 00:18:33;;;;;;;15.93;9.70;;;;;;;7.82;41.59;101248.03;5018692;28;20085;-82
2022/03/11 00:20:59;;;;;;;16.05;10.82;;;;;;;7.73;41.76;101240.97;5019728;28;20053;-83
2022/03/11 00:23:26;;;;;;;15.02;10.40;;;;;;;7.74;41.87;101242.59;5019239;28;20050;-82
2022/03/11 00:25:53;;;;;;;13.93;10.18;;;;;;;7.66;42.01;101238.84;5018970;28;20069;-82
2022/03/11 00:28:19;;;;;;;17.33;10.40;;;;;;;7.71;41.59;101246.28;5019577;28;20073;-84
2022/03/11 00:30:47;;;;;;;16.70;10.18;;;;;;;7.69;41.63;101236.94;5021506;28;20054;-83
2022/03/11 00:33:13;;;;;;;16.63;9.85;;;;;;;7.60;41.57;101241.94;5018224;28;20089;-83
2022/03/11 00:35:42;;;;;;;16.70;10.32;;;;;;;7.54;41.64;101239.00;5017718;28;20124;-83
2022/03/11 00:38:09;;;;;;;16.13;9.93;;;;;;;7.74;41.39;101242.59;5018510;28;20110;-83
2022/03/11 00:40:37;;;;;;;13.10;9.23;;;;;;;7.61;41.68;101235.78;5018817;28;20050;-83
2022/03/11 00:43:03;;;;;;;15.27;10.27;;;;;;;7.64;41.24;101240.72;5020235;28;20049;-82
2022/03/11 00:45:30;;;;;;;16.38;9.88;;;;;;;7.63;41.38;101241.69;5019981;28;20050;-83
2022/03/11 00:47:57;;;;;;;17.73;9.80;;;;;;;7.76;40.83;101245.94;5019602;28;20053;-82
2022/03/11 00:50:24;;;;;;;12.40;9.43;;;;;;;7.67;41.49;101239.66;5023776;28;20455;-81
2022/03/11 00:52:53;;;;;;;17.45;9.75;;;;;;;7.57;41.31;101239.56;5022537;28;20069;-84
2022/03/11 00:55:19;;;;;;;16.13;9.93;;;;;;;7.35;41.88;101229.22;5023131;28;20052;-84
2022/03/11 00:57:46;;;;;;;16.02;10.00;;;;;;;7.49;41.45;101236.75;5027492;28;20046;-82
2022/03/11 01:00:14;;;;;;;17.23;9.40;;;;;;;7.44;41.64;101244.09;5024480;28;20127;-81
2022/03/11 01:02:40;;;;;;;14.93;9.77;;;;;;;7.37;42.29;101232.53;5019155;28;20137;-80
2022/03/11 01:05:08;;;;;;;14.25;9.32;;;;;;;7.45;41.95;101231.91;5029592;28;20085;-80
2022/03/11 01:07:35;;;;;;;14.27;10.05;;;;;;;7.43;41.97;101234.66;5038952;28;20547;-84
2022/03/11 01:10:04;;;;;;;16.65;10.20;;;;;;;7.43;41.40;101218.19;5038198;28;20069;-84
2022/03/11 01:12:31;;;;;;;16.80;10.43;;;;;;;7.33;42.18;101221.50;5037864;28;20049;-83
2022/03/11 01:14:58;;;;;;;14.80;9.80;;;;;;;7.27;42.48;101221.16;5041421;28;20080;-82
2022/03/11 01:17:30;;;;;;;13.88;9.52;;;;;;;7.14;43.03;101210.88;5040862;28;20114;-82
2022/03/11 01:19:59;;;;;;;17.67;9.63;;;;;;;7.07;43.18;101214.94;5040818;28;20160;-83
2022/03/11 01:22:32;;;;;;;17.35;9.50;;;;;;;7.05;43.00;101206.41;5043282;28;20045;-83
2022/03/11 01:25:06;;;;;;;15.13;10.05;;;;;;;7.02;43.53;101198.03;5044290;28;20049;-83
2022/03/11 01:27:38;;;;;;;15.90;9.55;;;;;;;7.03;42.78;101187.50;5045113;28;20106;-84
2022/03/11 01:30:06;;;;;;;16.23;9.75;;;;;;;6.99;42.79;101186.91;5043886;28;20057;-83
2022/03/11 01:32:37;;;;;;;17.50;9.95;;;;;;;6.97;43.28;101190.56;5044603;28;20091;-84
2022/03/11 01:35:07;;;;;;;14.93;10.20;;;;;;;6.89;43.45;101175.53;5042304;28;20049;-84
2022/03/11 01:37:34;;;;;;;14.20;9.60;;;;;;;7.03;43.40;101199.69;5041017;28;20079;-82
2022/03/11 01:40:00;;;;;;;16.92;9.63;;;;;;;6.94;43.55;101199.44;5040252;28;20080;-82
2022/03/11 01:42:27;;;;;;;16.05;10.27;;;;;;;6.89;43.83;101203.34;5041835;28;20232;-82
2022/03/11 01:44:55;;;;;;;14.52;9.65;;;;;;;6.81;43.93;101198.72;5041452;28;20132;-82
2022/03/11 01:47:22;;;;;;;17.17;9.30;;;;;;;6.84;44.16;101208.88;5041678;28;20164;-82
2022/03/11 01:49:48;;;;;;;14.52;9.60;;;;;;;6.82;44.04;101200.38;5040646;28;20050;-82
2022/03/11 01:52:17;;;;;;;14.02;9.18;;;;;;;6.82;44.29;101202.97;5041053;28;20092;-82
2022/03/11 01:54:45;;;;;;;18.60;9.68;;;;;;;6.71;44.92;101205.56;5041026;28;20081;-80
2022/03/11 01:57:15;;;;;;;15.68;9.93;;;;;;;6.70;45.34;101200.47;5040843;28;20049;-82
2022/03/11 01:59:44;;;;;;;15.32;9.48;;;;;;;6.68;45.14;101195.41;5041055;28;20100;-83
2022/03/11 02:02:12;;;;;;;14.38;9.82;;;;;;;6.69;45.68;101197.03;5041287;28;20056;-82
2022/03/11 02:04:40;;;;;;;13.43;9.13;;;;;;;6.51;45.38;101178.50;5040553;28;20484;-82
2022/03/11 02:07:07;;;;;;;13.77;9.07;;;;;;;6.60;45.42;101189.97;5040649;28;20042;-83
2022/03/11 02:09:34;;;;;;;14.55;9.80;;;;;;;6.57;45.52;101166.81;5039552;28;20057;-83
2022/03/11 02:12:01;;;;;;;17.70;9.93;;;;;;;6.48;46.08;101170.09;5040444;28;20054;-82
2022/03/11 02:14:28;;;;;;;15.35;9.63;;;;;;;6.55;46.17;101182.53;5039604;28;20085;-81
2022/03/11 02:16:54;;;;;;;20.35;10.70;;;;;;;6.60;46.22;101174.38;5039713;28;20482;-82
2022/03/11 02:19:22;;;;;;;16.05;10.13;;;;;;;6.53;46.10;101173.19;5041103;28;20141;-82
2022/03/11 02:21:51;;;;;;;14.85;9.90;;;;;;;6.58;46.34;101173.66;5045405;28;20079;-83
2022/03/11 02:24:19;;;;;;;17.75;10.52;;;;;;;6.64;46.44;101173.16;5047456;28;20069;-83
2022/03/11 02:26:46;;;;;;;15.30;10.18;;;;;;;6.63;46.22;101174.94;5040761;28;20068;-82
2022/03/11 02:29:14;;;;;;;17.95;10.55;;;;;;;6.61;46.67;101176.03;5043186;28;20168;-82
2022/03/11 02:31:41;;;;;;;20.10;10.45;;;;;;;6.67;46.30;101170.31;5041170;28;20053;-82
2022/03/11 02:34:08;;;;;;;15.88;9.68;;;;;;;6.54;47.02;101178.25;5039912;28;20088;-82
2022/03/11 02:36:34;;;;;;;16.83;10.18;;;;;;;6.46;46.87;101161.59;5039473;28;20089;-83
2022/03/11 02:39:01;;;;;;;20.90;10.85;;;;;;;6.48;47.06;101175.28;5038401;28;20096;-83
2022/03/11 02:41:29;;;;;;;19.38;11.48;;;;;;;6.59;46.82;101173.53;5039547;28;20144;-84
2022/03/11 02:43:56;;;;;;;14.85;10.13;;;;;;;6.51;47.45;101168.09;5039000;28;20231;-82
2022/03/11 02:46:22;;;;;;;16.67;11.02;;;;;;;6.55;47.36;101168.69;5037751;28;20046;-82
2022/03/11 02:48:49;;;;;;;16.88;10.82;;;;;;;6.42;47.93;101163.59;5037817;28;20049;-80
2022/03/11 02:51:16;;;;;;;17.75;10.82;;;;;;;6.52;47.40;101171.53;5038513;28;20072;-81
2022/03/11 02:53:43;;;;;;;17.15;10.98;;;;;;;6.60;47.03;101156.16;5045631;28;20125;-81
2022/03/11 02:56:11;;;;;;;14.90;10.55;;;;;;;6.51;47.63;101160.28;5039505;28;20045;-82
2022/03/11 02:58:40;;;;;;;20.65;10.90;;;;;;;6.43;47.40;101141.84;5038887;28;20052;-83
2022/03/11 03:01:12;;;;;;;19.10;10.00;;;;;;;6.45;47.49;101141.72;5040688;28;20057;-82
2022/03/11 03:03:39;;;;;;;19.73;10.82;;;;;;;6.40;47.77;101147.28;5041867;28;20064;-80
2022/03/11 03:06:06;;;;;;;17.70;11.30;;;;;;;6.52;47.75;101164.56;5022141;28;20476;-83
2022/03/11 03:08:35;;;;;;;17.75;11.50;;;;;;;6.52;47.78;101148.13;5020338;28;20049;-83
2022/03/11 03:11:02;;;;;;;21.02;11.07;;;;;;;6.42;47.50;101145.38;5020452;28;20050;-85
2022/03/11 03:13:29;;;;;;;19.35;10.93;;;;;;;6.42;47.77;101157.56;5019013;28;20057;-83
2022/03/11 03:15:57;;;;;;;17.60;10.65;;;;;;;6.38;48.50;101158.72;5020175;28;20057;-83
2022/03/11 03:18:31;;;;;;;19.33;11.55;;;;;;;6.30;48.64;101156.72;5019614;28;20050;-83
2022/03/11 03:20:58;;;;;;;21.63;11.85;;;;;;;6.32;48.65;101165.22;5020180;28;20050;-84
2022/03/11 03:23:27;;;;;;;19.73;11.38;;;;;;;6.13;48.48;101147.59;5019809;28;20058;-84
2022/03/11 03:25:54;;;;;;;16.92;11.57;;;;;;;6.25;49.36;101158.81;5020592;28;20117;-84
2022/03/11 03:28:22;;;;;;;20.35;11.90;;;;;;;6.15;48.78;101152.66;5018866;28;20103;-83
2022/03/11 03:30:49;;;;;;;22.50;11.70;;;;;;;6.32;48.30;101166.03;5018404;28;20073;-82
2022/03/11 03:33:17;;;;;;;21.02;11.02;;;;;;;6.23;49.29;101158.09;5038508;22;20335;-84
2022/03/11 03:35:43;;;;;;;27.23;11.63;;;;;;;6.36;48.28;101160.63;5058031;28;20049;-83
2022/03/11 03:38:10;;;;;;;20.48;11.88;;;;;;;6.19;49.16;101154.91;5058053;28;20057;-81
2022/03/11 03:40:37;;;;;;;19.27;11.75;;;;;;;6.14;49.34;101145.84;5059361;28;20056;-82
2022/03/11 03:43:03;;;;;;;18.60;11.55;;;;;;;6.12;49.13;101158.09;5063529;28;20556;-82
2022/03/11 03:45:30;;;;;;;22.77;11.57;;;;;;;6.05;49.82;101157.72;5084736;28;20083;-80
2022/03/11 03:47:58;;;;;;;17.20;11.35;;;;;;;5.99;49.88;101145.19;5082901;28;20055;-80
2022/03/11 03:50:26;;;;;;;19.85;12.38;;;;;;;6.05;49.89;101152.53;5082742;28;20052;-81
2022/03/11 03:52:53;;;;;;;20.52;12.02;;;;;;;6.08;49.82;101165.31;5082253;28;20087;-80
2022/03/11 03:55:20;;;;;;;18.33;11.60;;;;;;;6.04;49.99;101155.25;5080544;28;20083;-79
2022/03/11 03:57:46;;;;;;;17.98;10.98;;;;;;;5.89;49.82;101152.84;5080595;28;20712;-79
2022/03/11 04:00:14;;;;;;;18.25;11.38;;;;;;;6.04;49.82;101152.66;5074716;28;20162;-78
2022/03/11 04:02:45;;;;;;;20.65;11.88;;;;;;;6.06;49.35;101153.38;5075103;28;20136;-78
2022/03/11 04:05:13;;;;;;;18.10;11.88;;;;;;;5.96;50.46;101158.41;5073794;28;20194;-78
2022/03/11 04:07:41;;;;;;;19.73;11.98;;;;;;;5.90;50.49;101151.91;5074513;28;20087;-80
2022/03/11 04:10:08;;;;;;;18.77;12.30;;;;;;;6.05;49.71;101160.34;5074762;28;20131;-79
2022/03/11 04:12:35;;;;;;;19.40;12.02;;;;;;;5.91;50.15;101157.91;5071532;28;20271;-78
2022/03/11 04:15:02;;;;;;;19.98;12.07;;;;;;;5.89;49.90;101145.03;5069739;28;20072;-78
2022/03/11 04:17:28;;;;;;;20.38;12.32;;;;;;;5.85;50.78;101150.53;5070209;28;20160;-78
2022/03/11 04:19:55;;;;;;;20.13;11.95;;;;;;;5.72;51.58;101145.41;5069694;28;20050;-78
2022/03/11 04:22:21;;;;;;;19.15;12.10;;;;;;;5.69;51.62;101145.63;5072044;28;20048;-79
2022/03/11 04:24:50;;;;;;;21.70;12.50;;;;;;;5.61;51.74;101158.38;5077943;28;20060;-79
2022/03/11 04:27:17;;;;;;;18.88;12.10;;;;;;;5.55;51.33;101151.03;5080812;28;20061;-79
2022/03/11 04:29:43;;;;;;;22.38;13.27;;;;;;;5.68;51.90;101154.38;5080749;28;20140;-79
2022/03/11 04:32:10;;;;;;;23.42;13.98;;;;;;;5.62;51.39;101152.25;5080755;28;20087;-79
2022/03/11 04:34:36;;;;;;;19.70;11.93;;;;;;;5.54;52.00;101137.22;5077101;28;20131;-79
2022/03/11 04:37:04;;;;;;;20.58;12.77;;;;;;;5.51;52.53;101141.81;5077342;28;20087;-79
2022/03/11 04:39:30;;;;;;;19.75;13.15;;;;;;;5.39;52.44;101147.88;5078700;28;20080;-78
2022/03/11 04:41:58;;;;;;;21.52;12.77;;;;;;;5.42;52.65;101153.66;5077313;28;20613;-79
2022/03/11 04:44:25;;;;;;;23.23;13.95;;;;;;;5.50;52.11;101150.53;5079323;28;20131;-80
2022/03/11 04:46:51;;;;;;;19.63;13.10;;;;;;;5.44;52.07;101141.41;5079038;28;20091;-79
2022/03/11 04:49:18;;;;;;;20.58;13.38;;;;;;;5.47;52.08;101136.00;5076616;28;20049;-80
2022/03/11 04:51:45;;;;;;;23.00;13.27;;;;;;;5.52;51.70;101141.69;5077200;28;20131;-80
2022/03/11 04:54:11;;;;;;;19.35;12.60;;;;;;;5.51;51.48;101152.19;5077588;28;20158;-81
2022/03/11 04:56:38;;;;;;;23.77;13.57;;;;;;;5.47;52.36;101151.56;5080419;28;20131;-80
2022/03/11 04:59:06;;;;;;;20.73;13.23;;;;;;;5.38;51.89;101148.81;5082258;28;20048;-79
2022/03/11 05:01:33;;;;;;;22.15;13.63;;;;;;;5.32;52.98;101153.50;5082696;28;20494;-79
2022/03/11 05:03:59;;;;;;;18.77;12.70;;;;;;;5.31;52.83;101151.00;5082402;28;20083;-79
2022/03/11 05:06:27;;;;;;;25.60;13.52;;;;;;;5.36;52.77;101141.13;5082147;28;20500;-81
2022/03/11 05:08:53;;;;;;;22.23;13.85;;;;;;;5.35;52.41;101144.66;5079548;28;20072;-79
2022/03/11 05:11:20;;;;;;;19.77;13.65;;;;;;;5.15;53.00;101145.28;5061094;28;20049;-82
2022/03/11 05:13:47;;;;;;;25.52;13.48;;;;;;;5.26;53.02;101142.72;5064894;28;20143;-80
2022/03/11 05:16:16;;;;;;;23.63;14.38;;;;;;;5.31;52.27;101143.22;5085388;28;20111;-80
2022/03/11 05:18:44;;;;;;;19.42;13.07;;;;;;;5.23;53.41;101137.75;5086178;28;20099;-80
2022/03/11 05:21:11;;;;;;;22.33;13.52;;;;;;;5.24;53.04;101149.78;5062674;28;20044;-79
2022/03/11 05:23:38;;;;;;;24.05;15.50;;;;;;;5.18;52.92;101147.66;5052465;28;20102;-78
2022/03/11 05:26:24;;;;;;;22.23;14.13;;;;;;;5.08;53.71;101150.06;5066528;28;20076;-79
2022/03/11 05:28:52;;;;;;;28.38;14.60;;;;;;;5.08;53.64;101149.22;5083748;28;20509;-80
2022/03/11 05:31:20;;;;;;;24.08;13.95;;;;;;;5.00;53.86;101141.97;5064450;28;20049;-79
2022/03/11 05:33:46;;;;;;;24.23;14.55;;;;;;;4.99;53.93;101141.16;5059106;28;20160;-79
2022/03/11 05:36:13;;;;;;;23.88;14.05;;;;;;;4.95;53.92;101133.69;5063698;28;20100;-79
2022/03/11 05:38:39;;;;;;;21.17;13.77;;;;;;;5.05;53.26;101133.88;5066984;28;20132;-79
2022/03/11 05:41:06;;;;;;;21.00;14.30;;;;;;;4.92;54.34;101133.91;5070293;28;20112;-78
2022/03/11 05:43:33;;;;;;;26.13;15.18;;;;;;;4.93;53.90;101141.59;5064736;28;20037;-77
2022/03/11 05:46:00;;;;;;;25.75;16.13;;;;;;;4.86;54.72;101140.34;5073844;28;20080;-79
2022/03/11 05:48:28;;;;;;;25.02;15.93;;;;;;;4.76;55.00;101144.50;5068073;28;20063;-80
2022/03/11 05:50:55;;;;;;;22.52;14.75;;;;;;;4.83;54.36;101139.72;5077282;28;20056;-79
2022/03/11 05:53:21;;;;;;;23.58;15.48;;;;;;;4.82;54.42;101131.13;5095524;28;20044;-78
2022/03/11 05:55:48;;;;;;;24.35;15.23;;;;;;;4.75;55.00;101132.47;5086796;28;20045;-79
2022/03/11 05:58:53;;;;;;;25.02;15.63;;;;;;;4.68;55.21;101130.44;5063617;28;20112;-83
2022/03/11 06:01:20;;;;;;;26.52;15.77;;;;;;;4.67;55.08;101121.84;5062865;28;20049;-79
2022/03/11 06:03:48;;;;;;;26.38;16.17;;;;;;;4.78;54.89;101134.84;5062564;28;20056;-80
2022/03/11 06:06:15;;;;;;;25.33;15.82;;;;;;;4.75;55.63;101124.69;5061993;28;20049;-79
2022/03/11 06:08:43;;;;;;;28.58;17.33;;;;;;;4.68;55.65;101125.25;5067227;28;20179;-79
2022/03/11 06:11:11;;;;;;;24.65;16.05;;;;;;;4.66;55.68;101123.59;5063671;28;20049;-80
2022/03/11 06:13:38;;;;;;;25.52;15.32;;;;;;;4.76;55.21;101123.75;5061155;28;20095;-81
2022/03/11 06:16:05;;;;;;;27.35;16.20;;;;;;;4.72;55.50;101124.94;5062140;28;20111;-80
2022/03/11 06:18:32;;;;;;;26.02;15.93;;;;;;;4.81;55.34;101121.69;5061534;28;20132;-79
2022/03/11 06:21:00;;;;;;;26.95;16.15;;;;;;;4.76;54.94;101121.16;5061853;28;20099;-79
2022/03/11 06:23:27;;;;;;;26.10;17.20;;;;;;;4.64;56.44;101125.47;5061945;28;20088;-79
2022/03/11 06:25:53;;;;;;;24.23;16.63;;;;;;;4.65;56.00;101127.13;5062737;28;20052;-79
2022/03/11 06:28:20;;;;;;;30.15;16.90;;;;;;;4.75;55.26;101119.50;5061509;28;20049;-80
2022/03/11 06:30:47;;;;;;;29.25;16.40;;;;;;;4.72;55.33;101114.56;5059641;28;20123;-83
2022/03/11 06:33:15;;;;;;;26.95;16.45;;;;;;;4.75;55.66;101111.75;5059399;28;20045;-80
2022/03/11 06:35:41;;;;;;;27.40;17.33;;;;;;;4.78;55.90;101116.72;5059305;28;20052;-80
2022/03/11 06:38:09;;;;;;;26.75;17.30;;;;;;;5.00;54.79;101122.06;5058545;28;20091;-79
2022/03/11 06:40:36;;;;;;;29.98;17.75;;;;;;;5.21;54.09;101118.88;5061581;28;20113;-79
2022/03/11 06:43:02;;;;;;;30.65;17.63;;;;;;;5.41;53.17;101125.22;5060532;28;20092;-79
2022/03/11 06:45:31;;;;;;;29.35;18.67;;;;;;;5.51;53.16;101121.88;5061539;28;20079;-79
2022/03/11 06:47:58;;;;;;;34.70;18.20;;;;;;;5.53;53.70;101125.19;5060149;28;20049;-79
2022/03/11 06:50:25;;;;;;;30.05;18.83;;;;;;;5.62;52.58;101144.47;5060874;28;20112;-78
2022/03/11 06:52:52;;;;;;;29.23;17.40;;;;;;;5.80;52.25;101140.50;5061211;28;20108;-79
2022/03/11 06:55:20;;;;;;;27.33;16.95;;;;;;;5.90;52.36;101138.09;5060141;28;20060;-80
2022/03/11 06:57:47;;;;;;;41.55;18.75;;;;;;;5.82;52.19;101136.00;5060305;28;20657;-80
2022/03/11 07:00:14;;;;;;;39.33;20.50;;;;;;;5.59;52.66;101145.50;5060730;28;20430;-78
2022/03/11 07:02:41;;;;;;;29.90;18.52;;;;;;;5.57;53.03;101133.56;5063585;28;20076;-80
2022/03/11 07:05:09;;;;;;;37.45;19.33;;;;;;;5.97;52.65;101134.91;5070802;28;20076;-79
2022/03/11 07:07:35;;;;;;;48.35;21.23;;;;;;;6.19;51.13;101135.88;5066879;28;20079;-79
2022/03/11 07:10:04;;;;;;;49.38;19.50;;;;;;;6.18;51.12;101132.47;5056511;28;20132;-79
2022/03/11 07:12:32;;;;;;;32.80;18.85;;;;;;;6.39;50.81;101134.41;5055916;28;20096;-79
2022/03/11 07:15:00;;;;;;;26.67;17.73;;;;;;;6.53;50.29;101139.38;5055981;28;20470;-79
2022/03/11 07:17:29;;;;;;;32.97;18.35;;;;;;;6.47;49.97;101130.28;5055877;28;20047;-79
2022/03/11 07:19:56;;;;;;;28.48;19.63;;;;;;;6.47;49.52;101134.66;5056490;28;20056;-80
2022/03/11 07:22:23;;;;;;;28.17;19.25;;;;;;;6.54;49.72;101128.88;5056805;28;20482;-78
2022/03/11 07:24:50;;;;;;;33.97;19.55;;;;;;;6.44;49.38;101147.88;5056678;28;20108;-79
2022/03/11 07:27:16;;;;;;;28.10;18.75;;;;;;;6.46;50.09;101149.41;5056026;28;20460;-79
2022/03/11 07:29:44;;;;;;;36.58;19.95;;;;;;;6.34;50.18;101147.75;5055786;28;20124;-78
2022/03/11 07:32:16;;;;;;;34.28;20.10;;;;;;;6.49;49.54;101140.56;5056551;28;20476;-78
2022/03/11 07:34:42;;;;;;;36.45;18.73;;;;;;;6.70;48.57;101138.88;5054990;28;20115;-77
2022/03/11 07:37:11;;;;;;;32.75;19.60;;;;;;;6.58;49.69;101127.69;5055776;28;20132;-79
2022/03/11 07:39:39;;;;;;;31.90;20.35;;;;;;;6.65;49.19;101138.41;5055508;28;20060;-79
2022/03/11 07:42:06;;;;;;;34.95;19.33;;;;;;;6.87;48.64;101141.00;5056409;28;20063;-78
2022/03/11 07:44:34;;;;;;;34.97;21.25;;;;;;;6.89;48.83;101144.31;5056878;28;20518;-77
2022/03/11 07:47:02;;;;;;;30.60;19.70;;;;;;;6.78;48.13;101138.31;5056784;28;20056;-79
2022/03/11 07:49:28;;;;;;;38.17;19.83;;;;;;;6.88;48.50;101142.66;5057513;28;20124;-78
2022/03/11 07:51:55;;;;;;;39.70;21.08;;;;;;;6.66;48.01;101133.09;5061914;28;20104;-79
2022/03/11 07:54:22;;;;;;;33.35;19.23;;;;;;;6.71;48.63;101129.31;5077969;28;20461;-78
2022/03/11 07:56:49;;;;;;;32.55;21.45;;;;;;;6.74;48.28;101121.28;5078213;28;20063;-78
2022/03/11 07:59:15;;;;;;;35.00;19.40;;;;;;;6.80;48.32;101118.19;5078892;28;20044;-79
2022/03/11 08:01:42;;;;;;;32.55;19.00;;;;;;;7.18;47.89;101130.78;5079395;28;20048;-78
2022/03/11 08:04:13;;;;;;;43.10;20.38;;;;;;;7.12;47.75;101124.28;5075721;28;20048;-78
2022/03/11 08:06:40;;;;;;;30.67;19.65;;;;;;;7.05;47.46;101112.75;5077558;28;20056;-78
2022/03/11 08:09:06;;;;;;;28.92;19.15;;;;;;;7.41;46.96;101124.56;5075923;28;20137;-78
2022/03/11 08:11:33;;;;;;;29.17;19.55;;;;;;;7.15;47.22;101110.22;5073339;28;20072;-78
2022/03/11 08:14:00;;;;;;;37.67;20.02;;;;;;;7.24;47.29;101123.31;5074106;28;20104;-79
2022/03/11 08:16:26;;;;;;;33.88;19.60;;;;;;;7.64;46.75;101126.13;5074120;28;20063;-78
2022/03/11 08:18:53;;;;;;;32.63;21.30;;;;;;;7.33;46.60;101106.13;5073772;28;20089;-79
2022/03/11 08:21:21;;;;;;;70.43;20.48;;;;;;;7.19;47.26;101120.25;5075325;28;20103;-79
2022/03/11 08:23:48;;;;;;;30.85;19.63;;;;;;;7.22;46.71;101103.56;5074175;28;20061;-79
2022/03/11 08:26:15;;;;;;;39.90;20.27;;;;;;;7.45;46.90;101099.13;5073840;28;20147;-78
2022/03/11 08:28:42;;;;;;;33.72;19.05;;;;;;;7.28;46.54;101097.88;5078101;28;20095;-77
2022/03/11 08:31:09;;;;;;;28.77;19.38;;;;;;;7.27;46.11;101097.03;5081395;28;20071;-78
2022/03/11 08:33:37;;;;;;;35.65;20.75;;;;;;;7.24;46.79;101088.66;5087548;28;20048;-78
2022/03/11 08:36:04;;;;;;;34.97;20.45;;;;;;;7.42;46.66;101087.19;5089344;28;20048;-79
2022/03/11 08:38:32;;;;;;;39.72;20.35;;;;;;;7.05;46.87;101106.72;5087341;28;20426;-79
2022/03/11 08:41:00;;;;;;;31.60;20.27;;;;;;;7.21;46.88;101078.50;5080200;28;20491;-78
2022/03/11 08:43:27;;;;;;;39.45;20.27;;;;;;;7.36;46.34;101094.66;5078955;28;20085;-79
2022/03/11 08:45:53;;;;;;;36.00;20.23;;;;;;;7.49;46.49;101085.72;5080365;28;20075;-79
2022/03/11 08:48:20;;;;;;;32.53;19.30;;;;;;;7.69;46.36;101075.44;5077886;28;20046;-78
2022/03/11 08:50:47;;;;;;;27.70;19.45;;;;;;;7.61;46.17;101076.06;5078895;28;20080;-78
2022/03/11 08:53:14;;;;;;;33.72;18.52;;;;;;;7.70;45.45;101074.50;5078612;28;20108;-78
2022/03/11 08:55:42;;;;;;;36.88;18.20;;;;;;;7.62;45.30;101067.31;5080067;28;20104;-78
2022/03/11 08:58:09;;;;;;;28.45;19.05;;;;;;;7.43;45.83;101068.00;5077811;28;20080;-79
2022/03/11 09:00:35;;;;;;;26.60;18.23;;;;;;;7.56;45.40;101070.44;5078030;28;20509;-77
2022/03/11 09:03:04;;;;;;;31.20;19.45;;;;;;;7.56;45.19;101068.63;5077727;28;20049;-78
2022/03/11 09:05:31;;;;;;;32.63;19.80;;;;;;;7.95;45.44;101071.50;5077622;28;20140;-79
2022/03/11 09:07:59;;;;;;;30.55;18.55;;;;;;;7.94;44.78;101078.50;5078130;28;20094;-79
2022/03/11 09:10:26;;;;;;;33.10;21.17;;;;;;;7.92;45.43;101063.94;5078481;28;20123;-78
2022/03/11 09:12:54;;;;;;;33.08;19.80;;;;;;;8.36;44.65;101072.44;5077287;28;20108;-78
2022/03/11 09:15:20;;;;;;;31.15;19.55;;;;;;;7.83;44.68;101051.69;5078388;28;20166;-78
2022/03/11 09:17:48;;;;;;;26.85;18.58;;;;;;;8.09;44.56;101052.91;5079443;28;20131;-79
2022/03/11 09:20:15;;;;;;;30.60;19.52;;;;;;;8.07;45.02;101073.06;5079641;28;20049;-78
2022/03/11 09:22:41;;;;;;;37.30;20.17;;;;;;;7.98;44.86;101081.69;5078393;28;20045;-79
2022/03/11 09:25:11;;;;;;;33.67;21.45;;;;;;;7.82;45.48;101078.69;5077442;28;20079;-78
2022/03/11 09:27:38;;;;;;;31.52;20.20;;;;;;;7.88;44.92;101065.97;5079647;28;20712;-78
2022/03/11 09:30:10;;;;;;;34.45;21.17;;;;;;;8.30;44.53;101064.13;5077069;28;20080;-78
2022/03/11 09:32:37;;;;;;;30.80;19.02;;;;;;;8.06;44.57;101052.34;5078305;28;20131;-78
2022/03/11 09:35:04;;;;;;;37.25;20.45;;;;;;;7.85;44.43;101047.19;5080286;23;20040;-87
2022/03/11 09:37:31;;;;;;;38.42;18.98;;;;;;;8.20;44.66;101057.22;5050649;28;20630;-87
2022/03/11 09:39:58;;;;;;;34.38;20.00;;;;;;;8.34;44.61;101056.91;5037088;28;20128;-86
2022/03/11 09:42:25;;;;;;;31.85;19.35;;;;;;;8.45;44.24;101049.00;5036397;28;20056;-88
2022/03/11 09:44:54;;;;;;;39.03;18.38;;;;;;;8.53;43.94;101056.13;5037059;28;20100;-88
2022/03/11 09:47:23;;;;;;;26.50;18.92;;;;;;;8.49;43.80;101047.78;5036644;28;20064;-87
2022/03/11 09:49:51;;;;;;;43.83;19.92;;;;;;;8.82;43.47;101051.84;5037505;28;20132;-87
2022/03/11 09:52:20;;;;;;;37.67;18.88;;;;;;;8.51;43.89;101053.66;5038388;28;20045;-89
2022/03/11 09:54:46;;;;;;;35.00;19.60;;;;;;;8.32;43.68;101054.44;5047654;28;20081;-86
2022/03/11 09:57:17;;;;;;;30.05;19.40;;;;;;;8.59;43.60;101032.13;5038670;28;20104;-88
2022/03/11 09:59:44;;;;;;;29.85;20.55;;;;;;;8.74;43.66;101045.63;5037042;28;20103;-89
2022/03/11 10:02:14;;;;;;;33.78;19.55;;;;;;;8.78;43.07;101032.19;5039444;28;20053;-88
2022/03/11 10:04:51;;;;;;;31.38;18.25;;;;;;;8.66;43.19;101033.25;5041442;28;20383;-90
2022/03/11 10:07:25;;;;;;;28.60;17.55;;;;;;;8.96;42.88;101038.41;5039139;28;20119;-88
2022/03/11 10:09:52;;;;;;;35.00;20.00;;;;;;;8.90;42.75;101041.56;5039194;28;20467;-88
2022/03/11 10:12:28;;;;;;;33.17;19.80;;;;;;;8.86;42.78;101045.41;5041799;28;20081;-89
2022/03/11 10:14:57;;;;;;;37.60;19.90;;;;;;;8.96;43.04;101035.81;5038939;28;20124;-88
2022/03/11 10:17:24;;;;;;;31.10;18.10;;;;;;;8.95;42.56;101044.59;5037695;28;20088;-89
2022/03/11 10:19:59;;;;;;;30.63;18.95;;;;;;;9.01;42.31;101042.38;5038904;28;20080;-88
2022/03/11 10:22:26;;;;;;;35.28;19.33;;;;;;;9.03;42.39;101032.63;5037822;28;20103;-88
2022/03/11 10:24:53;;;;;;;29.63;19.42;;;;;;;8.91;42.08;101030.16;5037556;28;20569;-88
2022/03/11 10:27:23;;;;;;;33.33;19.10;;;;;;;9.06;42.85;101034.97;5037048;28;20091;-87
2022/03/11 10:29:50;;;;;;;30.75;18.73;;;;;;;9.39;42.38;101021.50;5037833;28;20060;-84
2022/03/11 10:32:22;;;;;;;29.38;18.65;;;;;;;9.51;41.60;101009.09;5039868;28;20429;-88
2022/03/11 10:34:49;;;;;;;31.48;19.30;;;;;;;9.39;42.00;100997.19;5040735;28;20045;-90
2022/03/11 10:37:17;;;;;;;38.30;19.27;;;;;;;9.49;41.28;101003.19;5039713;28;20133;-89
2022/03/11 10:39:46;;;;;;;32.80;19.08;;;;;;;9.28;41.59;100992.94;5038012;28;20085;-88
2022/03/11 10:42:19;;;;;;;32.88;19.27;;;;;;;9.34;41.38;101004.59;5036659;28;20221;-88
2022/03/11 10:44:58;;;;;;;28.05;18.58;;;;;;;9.51;41.90;101011.72;5039012;28;20128;-88
2022/03/11 10:47:27;;;;;;;31.23;19.45;;;;;;;9.47;41.30;100998.09;5036404;28;20117;-88
2022/03/11 10:49:56;;;;;;;28.92;18.08;;;;;;;9.46;41.14;100993.03;5036294;28;20132;-86
2022/03/11 10:52:32;;;;;;;32.15;19.13;;;;;;;9.69;40.81;101009.22;5035338;28;20088;-87
2022/03/11 10:55:00;;;;;;;29.70;19.00;;;;;;;9.83;41.64;101000.94;5036235;28;20146;-86
2022/03/11 10:57:37;;;;;;;25.25;18.30;;;;;;;9.81;40.87;100992.41;5035132;28;20085;-88
2022/03/11 11:00:22;;;;;;;29.52;19.45;;;;;;;9.87;41.10;100986.63;5034932;28;20077;-88
2022/03/11 11:02:49;;;;;;;30.30;19.33;;;;;;;9.78;40.30;100979.63;5037806;28;20068;-88
2022/03/11 11:05:16;;;;;;;30.67;18.92;;;;;;;9.91;39.86;100983.59;5036475;28;20459;-87
2022/03/11 11:07:45;;;;;;;31.73;18.38;;;;;;;9.92;39.44;100971.34;5036098;28;20136;-87
2022/03/11 11:10:14;;;;;;;30.98;18.95;;;;;;;9.92;40.03;100981.78;5036887;28;20113;-88
2022/03/11 11:12:41;;;;;;;40.03;19.30;;;;;;;9.94;39.88;100972.00;5035362;28;20053;-88
2022/03/11 11:15:10;;;;;;;28.55;18.02;;;;;;;10.01;39.59;100972.25;5036506;28;20055;-86
2022/03/11 11:17:38;;;;;;;34.47;19.13;;;;;;;9.93;39.56;100960.72;5035889;28;20128;-88
2022/03/11 11:20:13;;;;;;;33.80;19.27;;;;;;;10.26;39.38;100967.22;5035087;28;20129;-88
2022/03/11 11:22:42;;;;;;;28.38;18.20;;;;;;;9.92;39.13;100985.19;5034477;28;20063;-87